This is the latest recevied weather packets stored in our database for station/object KB1WCR. If no packets are shown the sender has not sent any weather packets the latest 1 day(s).
| Time | Temp. | Humidity | Pressure | Rain* | Wind** | Luminosity | Snow |
|---|---|---|---|---|---|---|---|
| 1778006969 | 25° C | 51% | 1004.7 hPa | 0 mm | 1.79 m/s, 126° | 705 W/m² | - |
| 1778006666 | 25.56° C | 51% | 1004.7 hPa | 0 mm | 0.45 m/s, 133° | 259 W/m² | - |
| 1778006362 | 25° C | 53% | 1004.8 hPa | 0 mm | 1.79 m/s, 176° | 693 W/m² | - |
| 1778006059 | 25.56° C | 52% | 1004.9 hPa | 0 mm | 0.45 m/s, 114° | 679 W/m² | - |
| 1778005756 | 24.44° C | 54% | 1004.8 hPa | 0 mm | 2.24 m/s, 240° | 743 W/m² | - |
| 1778005453 | 24.44° C | 53% | 1004.6 hPa | 0 mm | 1.34 m/s, 158° | 316 W/m² | - |
| 1778005149 | 25° C | 54% | 1005 hPa | 0 mm | 1.34 m/s, 282° | 685 W/m² | - |
| 1778004847 | 25° C | 56% | 1005 hPa | 0 mm | 1.79 m/s, 223° | 713 W/m² | - |
| 1778004543 | 24.44° C | 55% | 1005 hPa | 0 mm | 1.79 m/s, 222° | 670 W/m² | - |
| 1778004240 | 23.89° C | 57% | 1005 hPa | 0 mm | 0.45 m/s, 236° | 648 W/m² | - |
| 1778003936 | 23.33° C | 57% | 1005.1 hPa | 0 mm | 0.45 m/s, 251° | 592 W/m² | - |
| 1778003633 | 23.89° C | 56% | 1005.1 hPa | 0 mm | 1.34 m/s, 84° | 692 W/m² | - |
| 1778003329 | 23.89° C | 54% | 1005.3 hPa | 0 mm | 0.89 m/s, 230° | 671 W/m² | - |
| 1778003027 | 23.89° C | 56% | 1005.3 hPa | 0 mm | 1.34 m/s, 221° | 656 W/m² | - |
| 1778002723 | 23.89° C | 55% | 1005 hPa | 0 mm | 1.79 m/s, 200° | 666 W/m² | - |
| 1778002419 | 24.44° C | 57% | 1005.3 hPa | 0 mm | 2.24 m/s, 310° | 669 W/m² | - |
| 1778002116 | 24.44° C | 53% | 1005.5 hPa | 0 mm | 1.79 m/s, 197° | 685 W/m² | - |
| 1778001814 | 25° C | 52% | 1005.4 hPa | 0 mm | 1.34 m/s, 349° | 705 W/m² | - |
| 1778001514 | 25° C | 53% | 1005.5 hPa | 0 mm | 0.89 m/s, 230° | 677 W/m² | - |
| 1778001211 | 25° C | 52% | 1005.5 hPa | 0 mm | 2.24 m/s, 272° | 675 W/m² | - |
| 1778000907 | 25.56° C | 51% | 1005.7 hPa | 0 mm | 1.34 m/s, 235° | 671 W/m² | - |
| 1778000604 | 25° C | 55% | 1005.8 hPa | 0 mm | 1.34 m/s, 164° | 706 W/m² | - |
| 1778000299 | 25° C | 53% | 1006 hPa | 0 mm | 0.89 m/s, 232° | 729 W/m² | - |
| 1777999995 | 25° C | 53% | 1005.9 hPa | 0 mm | 1.34 m/s, 145° | 740 W/m² | - |
| 1777999691 | 25° C | 50% | 1006 hPa | 0 mm | 2.68 m/s, 271° | 736 W/m² | - |
* Rain latest hour (hover to see other rain measurements)
** Current wind speed in m/s (hover to see current wind gust speed)